sensor_id;sensor_type;location;lat;lon;timestamp;pressure;altitude;pressure_sealevel;temperature;humidity
21011;BME280;10663;42.714;23.274;2022-12-18T00:00:06;95530.28;;;5.14;100.00
21011;BME280;10663;42.714;23.274;2022-12-18T00:01:44;95535.53;;;5.14;100.00
21011;BME280;10663;42.714;23.274;2022-12-18T00:03:15;95555.53;;;5.15;100.00
21011;BME280;10663;42.714;23.274;2022-12-18T00:04:46;95544.41;;;5.13;100.00
21011;BME280;10663;42.714;23.274;2022-12-18T00:06:17;95532.13;;;5.07;100.00
21011;BME280;10663;42.714;23.274;2022-12-18T00:07:48;95573.94;;;5.09;100.00
21011;BME280;10663;42.714;23.274;2022-12-18T00:09:20;95550.50;;;5.07;100.00
21011;BME280;10663;42.714;23.274;2022-12-18T00:10:51;95553.50;;;5.11;100.00
21011;BME280;10663;42.714;23.274;2022-12-18T00:12:22;95553.50;;;5.11;100.00
21011;BME280;10663;42.714;23.274;2022-12-18T00:13:54;95545.63;;;5.11;100.00
21011;BME280;10663;42.714;23.274;2022-12-18T00:15:25;95549.06;;;5.11;100.00
21011;BME280;10663;42.714;23.274;2022-12-18T00:16:56;95562.38;;;5.16;100.00
21011;BME280;10663;42.714;23.274;2022-12-18T00:18:29;95566.47;;;5.06;100.00
21011;BME280;10663;42.714;23.274;2022-12-18T00:19:59;95577.41;;;4.96;100.00
21011;BME280;10663;42.714;23.274;2022-12-18T00:21:31;95557.25;;;4.90;100.00
21011;BME280;10663;42.714;23.274;2022-12-18T00:23:02;95567.94;;;4.88;100.00
21011;BME280;10663;42.714;23.274;2022-12-18T00:24:33;95570.78;;;4.87;100.00
21011;BME280;10663;42.714;23.274;2022-12-18T00:26:09;95551.44;;;4.81;100.00
21011;BME280;10663;42.714;23.274;2022-12-18T00:27:40;95565.94;;;4.91;100.00
21011;BME280;10663;42.714;23.274;2022-12-18T00:29:13;95571.19;;;4.91;100.00
21011;BME280;10663;42.714;23.274;2022-12-18T00:30:47;95560.88;;;4.89;100.00
21011;BME280;10663;42.714;23.274;2022-12-18T00:32:21;95576.63;;;4.89;100.00
21011;BME280;10663;42.714;23.274;2022-12-18T00:33:55;95569.78;;;4.88;100.00
21011;BME280;10663;42.714;23.274;2022-12-18T00:35:27;95576.84;;;4.87;100.00
21011;BME280;10663;42.714;23.274;2022-12-18T00:36:58;95600.66;;;4.86;100.00
21011;BME280;10663;42.714;23.274;2022-12-18T00:38:28;95586.56;;;4.80;100.00
21011;BME280;10663;42.714;23.274;2022-12-18T00:39:59;95591.19;;;4.78;100.00
21011;BME280;10663;42.714;23.274;2022-12-18T00:41:33;95572.22;;;4.76;100.00
21011;BME280;10663;42.714;23.274;2022-12-18T00:43:27;95587.97;;;4.76;100.00
21011;BME280;10663;42.714;23.274;2022-12-18T00:44:58;95577.09;;;4.66;100.00
21011;BME280;10663;42.714;23.274;2022-12-18T00:46:29;95589.41;;;4.66;100.00
21011;BME280;10663;42.714;23.274;2022-12-18T00:48:00;95574.91;;;4.57;100.00
21011;BME280;10663;42.714;23.274;2022-12-18T00:49:31;95594.28;;;4.62;100.00
21011;BME280;10663;42.714;23.274;2022-12-18T00:51:02;95586.19;;;4.57;100.00
21011;BME280;10663;42.714;23.274;2022-12-18T00:52:33;95596.47;;;4.59;100.00
21011;BME280;10663;42.714;23.274;2022-12-18T00:54:05;95582.78;;;4.63;100.00
21011;BME280;10663;42.714;23.274;2022-12-18T00:55:38;95591.63;;;4.56;100.00
21011;BME280;10663;42.714;23.274;2022-12-18T00:57:09;95600.94;;;4.51;100.00
21011;BME280;10663;42.714;23.274;2022-12-18T00:58:40;95615.06;;;4.50;100.00
21011;BME280;10663;42.714;23.274;2022-12-18T01:00:13;95600.16;;;4.44;100.00
21011;BME280;10663;42.714;23.274;2022-12-18T01:01:46;95601.56;;;4.40;100.00
21011;BME280;10663;42.714;23.274;2022-12-18T01:03:17;95611.66;;;4.43;100.00
21011;BME280;10663;42.714;23.274;2022-12-18T01:04:48;95599.75;;;4.41;100.00
21011;BME280;10663;42.714;23.274;2022-12-18T01:06:22;95593.88;;;4.39;100.00
21011;BME280;10663;42.714;23.274;2022-12-18T01:07:55;95608.63;;;4.40;100.00
21011;BME280;10663;42.714;23.274;2022-12-18T01:09:26;95612.25;;;4.32;100.00
21011;BME280;10663;42.714;23.274;2022-12-18T01:10:56;95597.13;;;4.34;100.00
21011;BME280;10663;42.714;23.274;2022-12-18T01:12:29;95614.88;;;4.32;100.00
21011;BME280;10663;42.714;23.274;2022-12-18T01:14:00;95606.41;;;4.37;100.00
21011;BME280;10663;42.714;23.274;2022-12-18T01:15:31;95643.50;;;4.40;100.00
21011;BME280;10663;42.714;23.274;2022-12-18T01:17:01;95603.81;;;4.37;100.00
21011;BME280;10663;42.714;23.274;2022-12-18T01:18:36;95620.53;;;4.29;100.00
21011;BME280;10663;42.714;23.274;2022-12-18T01:20:09;95632.81;;;4.29;100.00
21011;BME280;10663;42.714;23.274;2022-12-18T01:21:40;95621.16;;;4.25;100.00
21011;BME280;10663;42.714;23.274;2022-12-18T01:23:11;95615.91;;;4.18;100.00
21011;BME280;10663;42.714;23.274;2022-12-18T01:24:41;95635.06;;;4.25;100.00
21011;BME280;10663;42.714;23.274;2022-12-18T01:26:14;95635.25;;;4.24;100.00
21011;BME280;10663;42.714;23.274;2022-12-18T01:27:45;95612.88;;;4.21;100.00
21011;BME280;10663;42.714;23.274;2022-12-18T01:29:16;95610.44;;;4.20;100.00
21011;BME280;10663;42.714;23.274;2022-12-18T01:30:47;95620.34;;;4.18;100.00
21011;BME280;10663;42.714;23.274;2022-12-18T01:32:18;95635.03;;;4.12;100.00
21011;BME280;10663;42.714;23.274;2022-12-18T01:33:50;95624.38;;;4.13;100.00
21011;BME280;10663;42.714;23.274;2022-12-18T01:35:22;95614.50;;;4.09;100.00
21011;BME280;10663;42.714;23.274;2022-12-18T01:36:53;95622.94;;;4.11;100.00
21011;BME280;10663;42.714;23.274;2022-12-18T01:38:24;95632.41;;;4.12;100.00
21011;BME280;10663;42.714;23.274;2022-12-18T01:39:55;95628.19;;;4.11;100.00
21011;BME280;10663;42.714;23.274;2022-12-18T01:41:28;95645.34;;;4.07;100.00
21011;BME280;10663;42.714;23.274;2022-12-18T01:43:22;95640.72;;;4.09;100.00
21011;BME280;10663;42.714;23.274;2022-12-18T01:46:26;95656.63;;;4.07;100.00
21011;BME280;10663;42.714;23.274;2022-12-18T01:48:09;95636.84;;;4.11;100.00
21011;BME280;10663;42.714;23.274;2022-12-18T01:49:41;95620.13;;;4.12;100.00
21011;BME280;10663;42.714;23.274;2022-12-18T01:51:12;95632.84;;;4.09;100.00
21011;BME280;10663;42.714;23.274;2022-12-18T01:52:46;95624.97;;;4.09;100.00
21011;BME280;10663;42.714;23.274;2022-12-18T01:54:17;95635.66;;;4.14;100.00
21011;BME280;10663;42.714;23.274;2022-12-18T01:55:51;95652.00;;;4.09;100.00
21011;BME280;10663;42.714;23.274;2022-12-18T01:57:23;95655.22;;;4.05;100.00
21011;BME280;10663;42.714;23.274;2022-12-18T01:59:05;95648.72;;;4.01;100.00
21011;BME280;10663;42.714;23.274;2022-12-18T02:00:39;95632.63;;;4.04;100.00
21011;BME280;10663;42.714;23.274;2022-12-18T02:02:11;95646.16;;;4.07;100.00
21011;BME280;10663;42.714;23.274;2022-12-18T02:03:43;95676.78;;;4.07;100.00
21011;BME280;10663;42.714;23.274;2022-12-18T02:05:17;95634.25;;;4.05;100.00
21011;BME280;10663;42.714;23.274;2022-12-18T02:09:14;95641.28;;;4.04;100.00
21011;BME280;10663;42.714;23.274;2022-12-18T02:11:05;95668.13;;;4.06;100.00
21011;BME280;10663;42.714;23.274;2022-12-18T02:15:02;95643.91;;;4.04;100.00
21011;BME280;10663;42.714;23.274;2022-12-18T02:18:28;95676.56;;;4.02;100.00
21011;BME280;10663;42.714;23.274;2022-12-18T02:20:20;95672.53;;;3.99;100.00
21011;BME280;10663;42.714;23.274;2022-12-18T02:22:12;95673.34;;;4.00;100.00
21011;BME280;10663;42.714;23.274;2022-12-18T02:27:33;95686.84;;;3.97;100.00
21011;BME280;10663;42.714;23.274;2022-12-18T02:29:13;95672.94;;;3.96;100.00
21011;BME280;10663;42.714;23.274;2022-12-18T02:30:48;95674.94;;;4.01;100.00
21011;BME280;10663;42.714;23.274;2022-12-18T02:32:25;95682.00;;;3.94;100.00
21011;BME280;10663;42.714;23.274;2022-12-18T02:34:02;95678.38;;;3.95;100.00
21011;BME280;10663;42.714;23.274;2022-12-18T02:35:40;95673.94;;;3.89;100.00
21011;BME280;10663;42.714;23.274;2022-12-18T02:37:15;95668.88;;;3.87;100.00
21011;BME280;10663;42.714;23.274;2022-12-18T02:38:47;95680.19;;;3.88;100.00
21011;BME280;10663;42.714;23.274;2022-12-18T02:40:21;95697.91;;;3.92;100.00
21011;BME280;10663;42.714;23.274;2022-12-18T02:41:53;95684.00;;;3.92;100.00
21011;BME280;10663;42.714;23.274;2022-12-18T02:43:29;95675.75;;;3.88;100.00
21011;BME280;10663;42.714;23.274;2022-12-18T02:45:02;95676.75;;;3.87;100.00
21011;BME280;10663;42.714;23.274;2022-12-18T02:46:37;95686.41;;;3.87;100.00
21011;BME280;10663;42.714;23.274;2022-12-18T02:48:24;95687.22;;;3.81;100.00
21011;BME280;10663;42.714;23.274;2022-12-18T02:50:34;95684.78;;;3.79;100.00
21011;BME280;10663;42.714;23.274;2022-12-18T02:53:56;95686.97;;;3.69;100.00
21011;BME280;10663;42.714;23.274;2022-12-18T02:55:58;95682.75;;;3.74;100.00
21011;BME280;10663;42.714;23.274;2022-12-18T02:59:47;95681.34;;;3.72;100.00
21011;BME280;10663;42.714;23.274;2022-12-18T03:03:08;95697.25;;;3.64;100.00
21011;BME280;10663;42.714;23.274;2022-12-18T03:04:57;95754.81;;;3.57;100.00
21011;BME280;10663;42.714;23.274;2022-12-18T03:06:33;95689.16;;;3.59;100.00
21011;BME280;10663;42.714;23.274;2022-12-18T03:08:10;95677.06;;;3.64;100.00
21011;BME280;10663;42.714;23.274;2022-12-18T03:09:47;95678.75;;;3.72;100.00
21011;BME280;10663;42.714;23.274;2022-12-18T03:11:19;95682.75;;;3.68;100.00
21011;BME280;10663;42.714;23.274;2022-12-18T03:13:24;95683.56;;;3.75;100.00
21011;BME280;10663;42.714;23.274;2022-12-18T03:15:51;95699.69;;;3.72;100.00
21011;BME280;10663;42.714;23.274;2022-12-18T03:17:26;95709.75;;;3.75;100.00
21011;BME280;10663;42.714;23.274;2022-12-18T03:19:04;95693.66;;;3.71;100.00
21011;BME280;10663;42.714;23.274;2022-12-18T03:20:39;95689.41;;;3.70;100.00
21011;BME280;10663;42.714;23.274;2022-12-18T03:22:13;95703.31;;;3.71;100.00
21011;BME280;10663;42.714;23.274;2022-12-18T03:23:52;95691.22;;;3.70;100.00
21011;BME280;10663;42.714;23.274;2022-12-18T03:25:28;95692.03;;;3.77;100.00
21011;BME280;10663;42.714;23.274;2022-12-18T03:27:02;95703.72;;;3.74;100.00
21011;BME280;10663;42.714;23.274;2022-12-18T03:28:40;95700.91;;;3.83;100.00
21011;BME280;10663;42.714;23.274;2022-12-18T03:30:14;95700.13;;;3.82;100.00
21011;BME280;10663;42.714;23.274;2022-12-18T03:31:53;95703.94;;;3.80;100.00
21011;BME280;10663;42.714;23.274;2022-12-18T03:33:34;95733.94;;;3.77;100.00
21011;BME280;10663;42.714;23.274;2022-12-18T03:35:08;95721.47;;;3.79;100.00
21011;BME280;10663;42.714;23.274;2022-12-18T03:36:42;95736.56;;;3.70;100.00
21011;BME280;10663;42.714;23.274;2022-12-18T03:38:14;95746.78;;;3.65;100.00
21011;BME280;10663;42.714;23.274;2022-12-18T03:39:49;95737.72;;;3.61;100.00
21011;BME280;10663;42.714;23.274;2022-12-18T03:46:57;95751.19;;;3.58;100.00
21011;BME280;10663;42.714;23.274;2022-12-18T03:48:44;95739.50;;;3.54;100.00
21011;BME280;10663;42.714;23.274;2022-12-18T03:52:37;95777.75;;;3.55;100.00
21011;BME280;10663;42.714;23.274;2022-12-18T03:54:12;95736.91;;;3.54;100.00
21011;BME280;10663;42.714;23.274;2022-12-18T03:55:51;95754.41;;;3.54;100.00
21011;BME280;10663;42.714;23.274;2022-12-18T03:57:26;95762.47;;;3.52;100.00
21011;BME280;10663;42.714;23.274;2022-12-18T03:58:59;95754.97;;;3.43;100.00
21011;BME280;10663;42.714;23.274;2022-12-18T04:00:33;95736.63;;;3.43;100.00
21011;BME280;10663;42.714;23.274;2022-12-18T04:02:11;95758.19;;;3.45;100.00
21011;BME280;10663;42.714;23.274;2022-12-18T04:03:46;95754.00;;;3.50;100.00
21011;BME280;10663;42.714;23.274;2022-12-18T04:05:19;95756.41;;;3.52;100.00
21011;BME280;10663;42.714;23.274;2022-12-18T04:06:51;95760.47;;;3.54;100.00
21011;BME280;10663;42.714;23.274;2022-12-18T04:08:24;95758.41;;;3.50;100.00
21011;BME280;10663;42.714;23.274;2022-12-18T04:10:08;95743.91;;;3.47;100.00
21011;BME280;10663;42.714;23.274;2022-12-18T04:11:42;95749.34;;;3.46;100.00
21011;BME280;10663;42.714;23.274;2022-12-18T04:13:27;95762.03;;;3.49;100.00
21011;BME280;10663;42.714;23.274;2022-12-18T04:14:59;95751.38;;;3.50;100.00
21011;BME280;10663;42.714;23.274;2022-12-18T04:16:30;95761.63;;;3.45;100.00
21011;BME280;10663;42.714;23.274;2022-12-18T04:18:05;95763.66;;;3.50;100.00
21011;BME280;10663;42.714;23.274;2022-12-18T04:19:43;95767.28;;;3.49;100.00
21011;BME280;10663;42.714;23.274;2022-12-18T04:21:15;95785.59;;;3.49;99.87
21011;BME280;10663;42.714;23.274;2022-12-18T04:22:46;95776.31;;;3.46;100.00
21011;BME280;10663;42.714;23.274;2022-12-18T04:24:17;95805.91;;;3.47;99.29
21011;BME280;10663;42.714;23.274;2022-12-18T04:25:57;95780.97;;;3.44;99.15
21011;BME280;10663;42.714;23.274;2022-12-18T04:27:44;95776.91;;;3.42;98.72
21011;BME280;10663;42.714;23.274;2022-12-18T04:29:16;95795.06;;;3.50;98.48
21011;BME280;10663;42.714;23.274;2022-12-18T04:30:47;95791.03;;;3.47;98.16
21011;BME280;10663;42.714;23.274;2022-12-18T04:32:18;95789.81;;;3.43;98.16
21011;BME280;10663;42.714;23.274;2022-12-18T04:33:49;95795.78;;;3.37;97.62
21011;BME280;10663;42.714;23.274;2022-12-18T04:35:21;95797.00;;;3.34;97.73
21011;BME280;10663;42.714;23.274;2022-12-18T04:36:52;95805.59;;;3.28;98.04
21011;BME280;10663;42.714;23.274;2022-12-18T04:38:24;95795.56;;;3.32;97.09
21011;BME280;10663;42.714;23.274;2022-12-18T04:40:03;95786.53;;;3.34;96.98
21011;BME280;10663;42.714;23.274;2022-12-18T04:41:43;95796.38;;;3.32;97.25
21011;BME280;10663;42.714;23.274;2022-12-18T04:43:14;95801.03;;;3.37;96.90
21011;BME280;10663;42.714;23.274;2022-12-18T04:44:44;95806.00;;;3.25;96.77
21011;BME280;10663;42.714;23.274;2022-12-18T04:46:15;95830.38;;;3.26;96.32
21011;BME280;10663;42.714;23.274;2022-12-18T04:47:46;95833.59;;;3.28;96.07
21011;BME280;10663;42.714;23.274;2022-12-18T04:49:17;95825.69;;;3.21;96.20
21011;BME280;10663;42.714;23.274;2022-12-18T04:50:48;95814.06;;;3.24;96.51
21011;BME280;10663;42.714;23.274;2022-12-18T04:52:19;95830.72;;;3.16;96.31
21011;BME280;10663;42.714;23.274;2022-12-18T04:53:50;95819.81;;;3.13;96.72
21011;BME280;10663;42.714;23.274;2022-12-18T04:55:21;95824.66;;;3.16;96.61
21011;BME280;10663;42.714;23.274;2022-12-18T04:56:52;95817.63;;;3.16;96.58
21011;BME280;10663;42.714;23.274;2022-12-18T04:58:22;95817.56;;;3.10;96.06
21011;BME280;10663;42.714;23.274;2022-12-18T04:59:53;95811.91;;;3.06;96.65
21011;BME280;10663;42.714;23.274;2022-12-18T05:01:24;95830.63;;;3.10;96.64
21011;BME280;10663;42.714;23.274;2022-12-18T05:02:55;95820.41;;;3.08;96.58
21011;BME280;10663;42.714;23.274;2022-12-18T05:04:26;95844.13;;;3.07;96.48
21011;BME280;10663;42.714;23.274;2022-12-18T05:05:57;95828.44;;;3.07;96.98
21011;BME280;10663;42.714;23.274;2022-12-18T05:07:27;95845.13;;;3.06;96.82
21011;BME280;10663;42.714;23.274;2022-12-18T05:08:58;95836.22;;;3.00;96.88
21011;BME280;10663;42.714;23.274;2022-12-18T05:10:29;95835.41;;;2.99;97.67
21011;BME280;10663;42.714;23.274;2022-12-18T05:12:00;95842.31;;;3.07;97.28
21011;BME280;10663;42.714;23.274;2022-12-18T05:13:31;95846.31;;;3.03;97.14
21011;BME280;10663;42.714;23.274;2022-12-18T05:15:03;95857.56;;;3.04;97.98
21011;BME280;10663;42.714;23.274;2022-12-18T05:16:34;95859.81;;;3.07;97.43
21011;BME280;10663;42.714;23.274;2022-12-18T05:18:05;95836.03;;;3.01;97.85
21011;BME280;10663;42.714;23.274;2022-12-18T05:19:35;95843.06;;;3.01;97.56
21011;BME280;10663;42.714;23.274;2022-12-18T05:21:06;95853.34;;;3.03;97.37
21011;BME280;10663;42.714;23.274;2022-12-18T05:22:37;95863.44;;;3.06;97.71
21011;BME280;10663;42.714;23.274;2022-12-18T05:24:08;95864.38;;;2.98;97.04
21011;BME280;10663;42.714;23.274;2022-12-18T05:25:39;95860.81;;;3.06;96.71
21011;BME280;10663;42.714;23.274;2022-12-18T05:27:09;95872.94;;;3.13;96.68
21011;BME280;10663;42.714;23.274;2022-12-18T05:28:40;95854.59;;;3.07;95.71
21011;BME280;10663;42.714;23.274;2022-12-18T05:30:12;95894.66;;;3.07;95.35
21011;BME280;10663;42.714;23.274;2022-12-18T05:31:43;95869.91;;;3.10;95.12
21011;BME280;10663;42.714;23.274;2022-12-18T05:33:14;95867.84;;;3.05;95.04
21011;BME280;10663;42.714;23.274;2022-12-18T05:34:45;95881.97;;;3.11;94.94
21011;BME280;10663;42.714;23.274;2022-12-18T05:36:15;95884.72;;;3.03;94.27
21011;BME280;10663;42.714;23.274;2022-12-18T05:37:46;95880.44;;;2.95;94.33
21011;BME280;10663;42.714;23.274;2022-12-18T05:39:17;95876.03;;;2.95;94.25
21011;BME280;10663;42.714;23.274;2022-12-18T05:40:49;95878.13;;;3.07;94.26
21011;BME280;10663;42.714;23.274;2022-12-18T05:42:20;95891.59;;;3.04;93.92
21011;BME280;10663;42.714;23.274;2022-12-18T05:43:50;95891.53;;;2.97;94.01
21011;BME280;10663;42.714;23.274;2022-12-18T05:45:21;95904.00;;;2.95;93.81
21011;BME280;10663;42.714;23.274;2022-12-18T05:46:55;95902.31;;;2.87;94.30
21011;BME280;10663;42.714;23.274;2022-12-18T05:48:26;95887.38;;;2.81;94.38
21011;BME280;10663;42.714;23.274;2022-12-18T05:49:57;95885.63;;;2.88;94.94
21011;BME280;10663;42.714;23.274;2022-12-18T05:51:27;95898.25;;;2.85;94.29
21011;BME280;10663;42.714;23.274;2022-12-18T05:52:58;95907.09;;;2.84;94.63
21011;BME280;10663;42.714;23.274;2022-12-18T05:54:29;95895.00;;;2.83;94.10
21011;BME280;10663;42.714;23.274;2022-12-18T05:56:06;95909.03;;;2.96;94.84
21011;BME280;10663;42.714;23.274;2022-12-18T05:57:37;95917.34;;;3.00;93.60
21011;BME280;10663;42.714;23.274;2022-12-18T05:59:08;95906.78;;;2.93;94.11
21011;BME280;10663;42.714;23.274;2022-12-18T06:00:42;95906.44;;;2.96;93.99
21011;BME280;10663;42.714;23.274;2022-12-18T06:02:13;95915.72;;;2.99;93.66
21011;BME280;10663;42.714;23.274;2022-12-18T06:03:44;95914.28;;;2.96;93.90
21011;BME280;10663;42.714;23.274;2022-12-18T06:05:15;95926.91;;;2.93;94.02
21011;BME280;10663;42.714;23.274;2022-12-18T06:06:46;95914.63;;;2.93;95.08
21011;BME280;10663;42.714;23.274;2022-12-18T06:08:17;95928.34;;;2.95;94.76
21011;BME280;10663;42.714;23.274;2022-12-18T06:09:47;95920.19;;;3.05;94.85
21011;BME280;10663;42.714;23.274;2022-12-18T06:11:23;95933.47;;;3.04;94.65
21011;BME280;10663;42.714;23.274;2022-12-18T06:12:53;95924.78;;;3.03;94.49
21011;BME280;10663;42.714;23.274;2022-12-18T06:14:24;95923.25;;;3.09;94.53
21011;BME280;10663;42.714;23.274;2022-12-18T06:15:55;95923.66;;;3.12;94.69
21011;BME280;10663;42.714;23.274;2022-12-18T06:17:30;95915.81;;;3.12;94.51
21011;BME280;10663;42.714;23.274;2022-12-18T06:19:03;95921.88;;;3.13;94.24
21011;BME280;10663;42.714;23.274;2022-12-18T06:20:34;95919.63;;;3.10;93.79
21011;BME280;10663;42.714;23.274;2022-12-18T06:22:06;95962.06;;;3.05;92.70
21011;BME280;10663;42.714;23.274;2022-12-18T06:23:37;95924.28;;;2.93;93.80
21011;BME280;10663;42.714;23.274;2022-12-18T06:25:08;95923.47;;;2.92;94.34
21011;BME280;10663;42.714;23.274;2022-12-18T06:26:39;95924.09;;;2.94;93.69
21011;BME280;10663;42.714;23.274;2022-12-18T06:28:10;95938.44;;;2.98;94.31
21011;BME280;10663;42.714;23.274;2022-12-18T06:29:41;95945.31;;;2.99;93.38
21011;BME280;10663;42.714;23.274;2022-12-18T06:31:12;95932.47;;;3.05;93.14
21011;BME280;10663;42.714;23.274;2022-12-18T06:32:43;95943.28;;;3.01;93.20
21011;BME280;10663;42.714;23.274;2022-12-18T06:34:14;95933.72;;;3.09;92.92
21011;BME280;10663;42.714;23.274;2022-12-18T06:35:44;95942.16;;;3.11;92.40
21011;BME280;10663;42.714;23.274;2022-12-18T06:37:15;95935.31;;;3.10;92.84
21011;BME280;10663;42.714;23.274;2022-12-18T06:38:46;95937.34;;;3.08;92.38
21011;BME280;10663;42.714;23.274;2022-12-18T06:40:17;95950.03;;;3.11;91.88
21011;BME280;10663;42.714;23.274;2022-12-18T06:41:48;95933.97;;;3.14;92.08
21011;BME280;10663;42.714;23.274;2022-12-18T06:43:19;95952.03;;;3.09;92.14
21011;BME280;10663;42.714;23.274;2022-12-18T06:44:50;95939.31;;;3.06;91.17
21011;BME280;10663;42.714;23.274;2022-12-18T06:46:21;95990.84;;;3.05;90.62
21011;BME280;10663;42.714;23.274;2022-12-18T06:47:52;95953.06;;;2.93;89.16
21011;BME280;10663;42.714;23.274;2022-12-18T06:49:23;95971.56;;;2.91;89.23
21011;BME280;10663;42.714;23.274;2022-12-18T06:50:54;95962.13;;;2.90;90.02
21011;BME280;10663;42.714;23.274;2022-12-18T06:52:25;95987.88;;;2.93;88.83
21011;BME280;10663;42.714;23.274;2022-12-18T06:53:56;95979.16;;;2.86;88.58
21011;BME280;10663;42.714;23.274;2022-12-18T06:55:26;95968.94;;;2.91;89.01
21011;BME280;10663;42.714;23.274;2022-12-18T06:56:57;96009.81;;;2.92;88.50
21011;BME280;10663;42.714;23.274;2022-12-18T06:58:28;95985.03;;;2.88;88.33
21011;BME280;10663;42.714;23.274;2022-12-18T06:59:59;95961.72;;;2.93;89.22
21011;BME280;10663;42.714;23.274;2022-12-18T07:01:30;95967.53;;;2.89;89.21
21011;BME280;10663;42.714;23.274;2022-12-18T07:03:01;95976.56;;;2.86;89.89
21011;BME280;10663;42.714;23.274;2022-12-18T07:04:32;95971.50;;;2.85;90.44
21011;BME280;10663;42.714;23.274;2022-12-18T07:06:04;95980.09;;;2.79;91.10
21011;BME280;10663;42.714;23.274;2022-12-18T07:07:35;95973.47;;;2.83;91.14
21011;BME280;10663;42.714;23.274;2022-12-18T07:09:06;95990.63;;;2.85;91.12
21011;BME280;10663;42.714;23.274;2022-12-18T07:10:43;95998.22;;;2.80;91.90
21011;BME280;10663;42.714;23.274;2022-12-18T07:12:14;95985.75;;;2.82;91.32
21011;BME280;10663;42.714;23.274;2022-12-18T07:13:46;95982.00;;;2.70;91.97
21011;BME280;10663;42.714;23.274;2022-12-18T07:15:17;95991.84;;;2.68;91.93
21011;BME280;10663;42.714;23.274;2022-12-18T07:16:48;95997.31;;;2.73;92.09
21011;BME280;10663;42.714;23.274;2022-12-18T07:18:18;95999.56;;;2.76;92.02
21011;BME280;10663;42.714;23.274;2022-12-18T07:19:49;95986.13;;;2.79;92.37
21011;BME280;10663;42.714;23.274;2022-12-18T07:21:20;95997.84;;;2.83;91.78
21011;BME280;10663;42.714;23.274;2022-12-18T07:22:51;96000.66;;;2.82;91.83
21011;BME280;10663;42.714;23.274;2022-12-18T07:24:22;95975.41;;;2.74;92.37
21011;BME280;10663;42.714;23.274;2022-12-18T07:25:53;95985.69;;;2.76;92.74
21011;BME280;10663;42.714;23.274;2022-12-18T07:27:24;95986.16;;;2.64;92.32
21011;BME280;10663;42.714;23.274;2022-12-18T07:28:56;95991.09;;;2.74;92.55
21011;BME280;10663;42.714;23.274;2022-12-18T07:30:28;96000.38;;;2.77;91.90
21011;BME280;10663;42.714;23.274;2022-12-18T07:31:59;96003.00;;;2.77;92.43
21011;BME280;10663;42.714;23.274;2022-12-18T07:33:30;95994.91;;;2.72;92.78
21011;BME280;10663;42.714;23.274;2022-12-18T07:35:00;96000.84;;;2.80;92.53
21011;BME280;10663;42.714;23.274;2022-12-18T07:36:31;95992.19;;;2.80;92.71
21011;BME280;10663;42.714;23.274;2022-12-18T07:38:02;96011.84;;;2.76;93.00
21011;BME280;10663;42.714;23.274;2022-12-18T07:39:33;96012.22;;;2.73;93.20
21011;BME280;10663;42.714;23.274;2022-12-18T07:41:07;96007.16;;;2.71;93.41
21011;BME280;10663;42.714;23.274;2022-12-18T07:42:38;96032.88;;;2.68;93.69
21011;BME280;10663;42.714;23.274;2022-12-18T07:44:10;96039.09;;;2.67;93.82
21011;BME280;10663;42.714;23.274;2022-12-18T07:45:42;96001.31;;;2.69;93.70
21011;BME280;10663;42.714;23.274;2022-12-18T07:47:13;96024.38;;;2.66;93.40
21011;BME280;10663;42.714;23.274;2022-12-18T07:48:44;96014.09;;;2.64;94.13
21011;BME280;10663;42.714;23.274;2022-12-18T07:50:16;96008.16;;;2.70;93.73
21011;BME280;10663;42.714;23.274;2022-12-18T07:51:46;95994.81;;;2.65;94.50
21011;BME280;10663;42.714;23.274;2022-12-18T07:53:19;96013.75;;;2.67;94.51
21011;BME280;10663;42.714;23.274;2022-12-18T07:54:50;96011.78;;;2.69;94.63
21011;BME280;10663;42.714;23.274;2022-12-18T07:56:21;96030.72;;;2.71;94.19
21011;BME280;10663;42.714;23.274;2022-12-18T07:57:52;96036.53;;;2.73;94.34
21011;BME280;10663;42.714;23.274;2022-12-18T07:59:23;96027.91;;;2.73;94.86
21011;BME280;10663;42.714;23.274;2022-12-18T08:00:54;96028.69;;;2.73;94.83
21011;BME280;10663;42.714;23.274;2022-12-18T08:02:32;96035.94;;;2.71;94.51
21011;BME280;10663;42.714;23.274;2022-12-18T08:04:03;96035.56;;;2.74;94.41
21011;BME280;10663;42.714;23.274;2022-12-18T08:05:33;96031.94;;;2.75;94.90
21011;BME280;10663;42.714;23.274;2022-12-18T08:07:04;96045.03;;;2.75;94.61
21011;BME280;10663;42.714;23.274;2022-12-18T08:08:35;96038.38;;;2.73;94.42
21011;BME280;10663;42.714;23.274;2022-12-18T08:10:07;96025.56;;;2.78;94.08
21011;BME280;10663;42.714;23.274;2022-12-18T08:11:37;96060.63;;;2.83;94.14
21011;BME280;10663;42.714;23.274;2022-12-18T08:13:08;96048.81;;;2.87;93.84
21011;BME280;10663;42.714;23.274;2022-12-18T08:14:39;96042.94;;;2.85;93.30
21011;BME280;10663;42.714;23.274;2022-12-18T08:16:10;96046.00;;;2.89;93.13
21011;BME280;10663;42.714;23.274;2022-12-18T08:17:41;96056.59;;;2.81;92.95
21011;BME280;10663;42.714;23.274;2022-12-18T08:19:12;96060.25;;;2.86;92.88
21011;BME280;10663;42.714;23.274;2022-12-18T08:20:43;96082.81;;;2.87;92.09
21011;BME280;10663;42.714;23.274;2022-12-18T08:22:14;96056.19;;;2.84;92.61
21011;BME280;10663;42.714;23.274;2022-12-18T08:23:44;96046.53;;;2.84;91.90
21011;BME280;10663;42.714;23.274;2022-12-18T08:25:15;96062.34;;;2.91;91.32
21011;BME280;10663;42.714;23.274;2022-12-18T08:26:46;96048.94;;;3.00;91.23
21011;BME280;10663;42.714;23.274;2022-12-18T08:28:17;96062.41;;;2.97;90.07
21011;BME280;10663;42.714;23.274;2022-12-18T08:29:48;96070.44;;;2.96;90.15
21011;BME280;10663;42.714;23.274;2022-12-18T08:31:19;96081.66;;;2.90;89.96
21011;BME280;10663;42.714;23.274;2022-12-18T08:32:53;96064.41;;;2.95;90.19
21011;BME280;10663;42.714;23.274;2022-12-18T08:34:24;96059.28;;;2.87;90.43
21011;BME280;10663;42.714;23.274;2022-12-18T08:35:55;96059.41;;;3.00;90.53